Time;durP1;ratioP1;P1;durP2;ratioP2;P2;SDS_P1;SDS_P2;PMS_P1;PMS_P2;Temp;Humidity;BMP_temperature;BMP_pressure;BME280_temperature;BME280_humidity;BME280_pressure;Samples;Min_cycle;Max_cycle;Signal;HPM_P1;HPM_P2
2022/08/04 00:00:56;;;;;;;;;26.75;25.00;;;;;33.63;nan;99339.44;5151088;27;8851;-72
2022/08/04 00:03:28;;;;;;;;;25.00;24.00;;;;;33.40;nan;99339.88;5145620;27;8817;-73
2022/08/04 00:06:02;;;;;;;;;28.00;25.75;;;;;33.50;nan;99339.81;5114407;27;9328;-71
2022/08/04 00:08:44;;;;;;;;;29.00;28.25;;;;;33.66;nan;99341.00;5132533;27;9015;-72
2022/08/04 00:11:15;;;;;;;;;25.25;24.00;;;;;32.76;nan;99341.63;5132380;27;8853;-72
2022/08/04 00:13:52;;;;;;;;;23.00;21.50;;;;;31.96;nan;99340.16;5132878;27;8945;-73
2022/08/04 00:16:33;;;;;;;;;24.75;24.50;;;;;31.50;nan;99342.59;5098912;27;8845;-74
2022/08/04 00:19:10;;;;;;;;;26.75;25.50;;;;;31.32;nan;99336.97;5132287;27;8868;-74
2022/08/04 00:21:45;;;;;;;;;25.75;24.75;;;;;31.21;nan;99337.09;5132115;27;8852;-72
2022/08/04 00:24:16;;;;;;;;;23.50;23.00;;;;;31.23;nan;99341.38;5113822;27;8934;-72
2022/08/04 00:26:46;;;;;;;;;21.00;21.00;;;;;31.43;nan;99333.31;5132091;27;8833;-73
2022/08/04 00:29:15;;;;;;;;;22.25;21.25;;;;;31.77;nan;99330.25;5130765;27;8842;-74
2022/08/04 00:31:44;;;;;;;;;24.50;24.00;;;;;31.96;nan;99337.47;5096042;27;8879;-72
2022/08/04 00:34:25;;;;;;;;;27.50;25.25;;;;;32.23;nan;99331.34;5131604;27;8849;-72
2022/08/04 00:36:55;;;;;;;;;24.00;24.00;;;;;32.01;nan;99329.81;5132204;27;8876;-73
2022/08/04 00:39:26;;;;;;;;;24.75;23.50;;;;;31.97;nan;99333.81;5090194;27;8850;-72
2022/08/04 00:42:24;;;;;;;;;24.00;24.00;;;;;31.57;nan;99329.38;5099006;27;9668;-70
2022/08/04 00:45:15;;;;;;;;;22.00;22.00;;;;;31.63;nan;99329.69;5151712;27;8902;-70
2022/08/04 00:48:02;;;;;;;;;26.75;26.75;;;;;32.00;nan;99341.59;5048570;28;8857;-72
2022/08/04 00:50:44;;;;;;;;;24.50;22.00;;;;;32.21;nan;99338.75;5046816;28;8834;-71
2022/08/04 00:53:25;;;;;;;;;23.50;22.25;;;;;32.31;nan;99336.91;5016699;28;8984;-72
2022/08/04 00:56:06;;;;;;;;;26.50;23.75;;;;;32.45;nan;99332.88;5015379;28;8988;-71
2022/08/04 00:58:47;;;;;;;;;24.50;24.00;;;;;32.50;nan;99333.28;5047810;28;8951;-71
2022/08/04 01:01:29;;;;;;;;;25.25;23.50;;;;;32.35;nan;99332.91;5047752;28;8838;-72
2022/08/04 01:04:03;;;;;;;;;26.25;25.25;;;;;32.24;nan;99333.06;5047212;28;8968;-72
2022/08/04 01:06:42;;;;;;;;;23.00;20.50;;;;;32.22;nan;99340.47;5046340;28;8857;-74
2022/08/04 01:09:26;;;;;;;;;26.25;25.75;;;;;32.01;nan;99346.84;5047438;28;9007;-72
2022/08/04 01:12:18;;;;;;;;;23.75;23.00;;;;;32.14;nan;99337.66;5038274;28;9661;-72
2022/08/04 01:15:05;;;;;;;;;24.25;24.25;;;;;32.27;nan;99331.91;4988518;28;8850;-71
2022/08/04 01:17:46;;;;;;;;;24.75;24.75;;;;;32.42;nan;99335.84;4988011;28;8893;-72
2022/08/04 01:20:20;;;;;;;;;27.50;27.00;;;;;32.38;nan;99331.75;4987754;28;8960;-73
2022/08/04 01:23:25;;;;;;;;;25.75;25.75;;;;;32.29;nan;99325.41;4987776;28;9591;-72
2022/08/04 01:26:22;;;;;;;;;25.50;25.50;;;;;31.94;nan;99329.53;4989764;28;8947;-72
2022/08/04 01:29:12;;;;;;;;;26.75;26.75;;;;;31.87;nan;99325.69;5055516;28;8867;-71
2022/08/04 01:32:01;;;;;;;;;26.50;26.50;;;;;32.06;nan;99335.63;5067386;28;8867;-70
2022/08/04 01:34:35;;;;;;;;;25.75;25.75;;;;;32.04;nan;99330.41;5066699;28;8963;-71
2022/08/04 01:37:11;;;;;;;;;28.25;26.50;;;;;32.14;nan;99325.00;5064037;28;8947;-72
2022/08/04 01:39:49;;;;;;;;;28.25;28.25;;;;;32.29;nan;99321.81;5066872;28;8917;-72
2022/08/04 01:42:22;;;;;;;;;23.00;22.75;;;;;31.91;nan;99335.22;5066867;28;9578;-71
2022/08/04 01:45:05;;;;;;;;;25.50;25.25;;;;;31.65;nan;99329.53;5066698;28;8851;-72
2022/08/04 01:47:36;;;;;;;;;27.50;26.50;;;;;31.59;nan;99332.78;5066335;28;8855;-71
2022/08/04 01:50:08;;;;;;;;;28.50;27.25;;;;;31.58;nan;99333.78;5066505;28;9593;-71
2022/08/04 01:52:39;;;;;;;;;28.00;27.00;;;;;31.50;nan;99333.66;5096808;27;8901;-72
2022/08/04 01:55:09;;;;;;;;;21.25;21.25;;;;;31.30;nan;99325.47;5129535;27;8865;-71
2022/08/04 01:57:43;;;;;;;;;24.00;24.00;;;;;31.33;nan;99332.47;5130178;27;8905;-72
2022/08/04 02:00:15;;;;;;;;;25.75;25.75;;;;;31.65;nan;99321.44;5112264;27;9575;-74
2022/08/04 02:02:45;;;;;;;;;24.50;24.25;;;;;31.67;nan;99317.63;5130357;27;8859;-71
2022/08/04 02:05:17;;;;;;;;;27.00;26.25;;;;;31.73;nan;99318.88;5130602;27;8834;-70
2022/08/04 02:07:59;;;;;;;;;25.75;25.75;;;;;31.82;nan;99323.44;5130600;27;9595;-71
2022/08/04 02:10:35;;;;;;;;;24.00;24.00;;;;;31.77;nan;99319.47;5129620;27;8841;-72
2022/08/04 02:13:17;;;;;;;;;23.75;23.25;;;;;31.82;nan;99315.34;5076859;27;8944;-72
2022/08/04 02:15:57;;;;;;;;;24.00;24.00;;;;;31.80;nan;99320.03;5110992;27;9669;-71
2022/08/04 02:18:31;;;;;;;;;24.25;24.25;;;;;31.72;nan;99313.63;5076824;27;8837;-73
2022/08/04 02:21:01;;;;;;;;;27.00;23.50;;;;;31.59;nan;99322.88;5129900;27;8837;-72
2022/08/04 02:23:36;;;;;;;;;21.25;19.50;;;;;31.64;nan;99322.44;5129949;27;8841;-72
2022/08/04 02:26:06;;;;;;;;;18.75;18.25;;;;;31.55;nan;99323.28;5130918;27;9695;-72
2022/08/04 02:28:43;;;;;;;;;25.00;24.50;;;;;31.47;nan;99315.91;5149757;27;9611;-72
2022/08/04 02:31:23;;;;;;;;;22.75;20.50;;;;;31.42;nan;99319.00;5111030;27;8841;-73
2022/08/04 02:34:00;;;;;;;;;25.50;23.50;;;;;31.38;nan;99325.66;5129701;27;8852;-73
2022/08/04 02:36:34;;;;;;;;;21.75;21.00;;;;;31.36;nan;99321.38;5129557;27;8826;-74
2022/08/04 02:39:05;;;;;;;;;22.00;22.00;;;;;31.13;nan;99320.78;5129418;27;8849;-71
2022/08/04 02:41:34;;;;;;;;;23.75;23.75;;;;;31.12;nan;99321.78;5110946;27;8875;-71
2022/08/04 02:44:05;;;;;;;;;23.50;23.50;;;;;31.16;nan;99328.59;5122420;27;8873;-74
2022/08/04 02:46:37;;;;;;;;;20.50;20.25;;;;;31.17;nan;99330.28;5150013;27;9616;-71
2022/08/04 02:49:07;;;;;;;;;24.50;23.75;;;;;31.17;nan;99331.13;5150317;27;8846;-73
2022/08/04 02:51:40;;;;;;;;;25.25;24.25;;;;;31.17;nan;99327.59;5150116;27;8831;-69
2022/08/04 02:54:09;;;;;;;;;24.00;24.00;;;;;31.23;nan;99329.72;5096604;27;8923;-73
2022/08/04 02:56:40;;;;;;;;;26.75;25.00;;;;;31.14;nan;99330.56;5141908;27;8821;-72
2022/08/04 02:59:11;;;;;;;;;27.75;26.25;;;;;31.04;nan;99328.69;5123430;27;9547;-71
2022/08/04 03:01:41;;;;;;;;;27.25;26.00;;;;;31.04;nan;99322.44;5119072;27;8829;-71
2022/08/04 03:04:41;;;;;;;;;27.75;26.25;;;;;31.31;nan;99329.91;5133596;27;8857;-72
2022/08/04 03:07:41;;;;;;;;;29.50;27.50;;;;;31.02;nan;99333.38;5076466;28;8836;-71
2022/08/04 03:10:37;;;;;;;;;28.75;26.75;;;;;31.06;nan;99329.41;5108614;28;8835;-72
2022/08/04 03:13:38;;;;;;;;;26.25;26.25;;;;;31.22;nan;99320.78;5105928;28;8839;-73
2022/08/04 03:16:54;;;;;;;;;26.75;26.00;;;;;31.26;nan;99332.16;5113269;27;8973;-73
2022/08/04 03:19:59;;;;;;;;;24.25;24.00;;;;;31.26;nan;99330.28;5127177;27;8845;-72
2022/08/04 03:23:03;;;;;;;;;43.75;36.50;;;;;31.22;nan;99326.19;5065294;28;9014;-71
2022/08/04 03:26:22;;;;;;;;;33.00;28.50;;;;;31.20;nan;99333.56;4928230;29;9689;-70
2022/08/04 03:29:42;;;;;;;;;22.50;21.75;;;;;31.06;nan;99333.97;4834504;29;8878;-72
2022/08/04 03:32:57;;;;;;;;;28.00;26.50;;;;;31.18;nan;99332.00;4833575;29;8889;-72
2022/08/04 03:35:57;;;;;;;;;22.25;21.00;;;;;31.06;nan;99336.66;4834413;29;8858;-71
2022/08/04 03:38:55;;;;;;;;;25.25;24.75;;;;;30.98;nan;99337.31;4834451;29;8893;-73
2022/08/04 03:42:08;;;;;;;;;27.75;27.25;;;;;30.99;nan;99336.34;4849172;29;8936;-74
2022/08/04 03:45:09;;;;;;;;;27.75;25.25;;;;;30.89;nan;99330.03;4780090;30;8890;-72
2022/08/04 03:48:14;;;;;;;;;27.75;26.75;;;;;30.92;nan;99343.25;4773472;30;8875;-73
2022/08/04 03:54:45;;;;;;;;;34.25;30.25;;;;;30.94;nan;99346.66;4709248;30;8951;-70
2022/08/04 03:57:53;;;;;;;;;32.75;30.75;;;;;30.71;nan;99345.97;4710885;30;9719;-71
2022/08/04 04:00:31;;;;;;;;;30.25;29.75;;;;;30.18;nan;99352.28;4726266;30;8980;-73
2022/08/04 04:03:41;;;;;;;;;29.25;29.25;;;;;30.20;nan;99350.31;4790744;29;9844;-71
2022/08/04 04:06:41;;;;;;;;;28.25;27.50;;;;;30.34;nan;99353.69;4944322;29;8859;-72
2022/08/04 04:09:23;;;;;;;;;26.00;24.00;;;;;30.35;nan;99356.25;4946677;29;8858;-72
2022/08/04 04:12:06;;;;;;;;;25.50;24.00;;;;;30.45;nan;99357.16;4941816;29;8854;-72
2022/08/04 04:15:05;;;;;;;;;26.75;25.50;;;;;30.65;nan;99354.59;4927776;29;8983;-74
2022/08/04 04:18:05;;;;;;;;;50.25;41.75;;;;;30.75;nan;99360.00;4871424;29;8886;-70
2022/08/04 04:21:18;;;;;;;;;29.00;29.00;;;;;30.90;nan;99364.91;4822410;29;8971;-71
2022/08/04 04:24:03;;;;;;;;;82.50;79.75;;;;;30.89;nan;99356.97;4778785;29;8922;-71
2022/08/04 04:26:49;;;;;;;;;33.50;32.00;;;;;30.92;nan;99358.56;4780140;30;10991;-72
2022/08/04 04:29:48;;;;;;;;;30.00;29.50;;;;;31.00;nan;99358.72;4835104;29;9734;-71
2022/08/04 04:32:24;;;;;;;;;59.00;47.75;;;;;31.05;nan;99365.41;4887593;29;8890;-71
2022/08/04 04:35:19;;;;;;;;;30.00;28.00;;;;;30.90;nan;99364.06;4890287;29;8851;-73
2022/08/04 04:38:04;;;;;;;;;27.75;26.50;;;;;30.90;nan;99372.16;4896251;29;8887;-71
2022/08/04 04:40:50;;;;;;;;;29.50;29.50;;;;;30.91;nan;99363.09;4911863;29;8915;-72
2022/08/04 04:43:57;;;;;;;;;27.75;26.75;;;;;31.19;nan;99368.72;4911493;29;8853;-72
2022/08/04 04:46:38;;;;;;;;;27.50;27.00;;;;;31.02;nan;99371.09;4892487;29;9006;-72
2022/08/04 04:49:22;;;;;;;;;26.75;25.50;;;;;30.98;nan;99364.25;4900016;29;8854;-71
2022/08/04 04:51:58;;;;;;;;;28.75;27.75;;;;;30.93;nan;99365.63;4874796;29;8906;-71
2022/08/04 04:54:33;;;;;;;;;26.50;22.75;;;;;31.09;nan;99369.53;4896214;29;9635;-72
2022/08/04 04:57:11;;;;;;;;;29.50;26.75;;;;;31.25;nan;99366.34;4901109;28;8880;-71
2022/08/04 04:59:49;;;;;;;;;27.25;26.25;;;;;31.32;nan;99376.56;4963439;28;8903;-72
2022/08/04 05:02:43;;;;;;;;;26.75;26.75;;;;;31.51;nan;99378.47;5045837;28;8850;-74
2022/08/04 05:05:37;;;;;;;;;30.00;29.00;;;;;31.12;nan;99386.44;5046075;28;8900;-70
2022/08/04 05:08:34;;;;;;;;;28.75;28.25;;;;;30.99;nan;99382.13;4986801;28;8934;-73
2022/08/04 05:11:50;;;;;;;;;27.25;27.00;;;;;30.63;nan;99384.31;4986542;28;8853;-72
2022/08/04 05:14:27;;;;;;;;;33.75;30.50;;;;;30.52;nan;99381.72;4947787;28;8867;-72
2022/08/04 05:17:15;;;;;;;;;29.75;29.00;;;;;30.50;nan;99383.69;4947941;28;8887;-73
2022/08/04 05:19:55;;;;;;;;;30.25;29.50;;;;;30.50;nan;99395.28;4947164;28;9676;-72
2022/08/04 05:22:29;;;;;;;;;29.75;26.75;;;;;30.49;nan;99396.28;4995596;28;8889;-72
2022/08/04 05:25:09;;;;;;;;;27.75;26.25;;;;;30.65;nan;99401.19;4992468;28;8877;-76
2022/08/04 05:27:41;;;;;;;;;29.75;29.00;;;;;30.86;nan;99397.63;4989659;28;10050;-73
2022/08/04 05:30:11;;;;;;;;;28.50;27.00;;;;;31.03;nan;99397.00;5024933;28;8853;-71
2022/08/04 05:32:56;;;;;;;;;27.50;27.50;;;;;31.43;nan;99404.22;4988071;28;8861;-72
2022/08/04 05:35:34;;;;;;;;;28.25;27.00;;;;;31.21;nan;99405.31;4992710;28;8946;-71
2022/08/04 05:38:26;;;;;;;;;31.00;29.50;;;;;31.41;nan;99403.53;5008777;28;8891;-73
2022/08/04 05:40:55;;;;;;;;;28.25;26.50;;;;;31.47;nan;99402.16;5025167;28;8955;-71
2022/08/04 05:43:25;;;;;;;;;32.00;30.25;;;;;31.30;nan;99409.00;5021339;28;8897;-71
2022/08/04 05:45:56;;;;;;;;;32.75;31.00;;;;;31.15;nan;99413.09;5069062;28;8848;-73
2022/08/04 05:48:25;;;;;;;;;29.50;28.50;;;;;30.44;nan;99417.34;5068210;28;8862;-71
2022/08/04 05:50:56;;;;;;;;;29.25;28.25;;;;;30.82;nan;99418.56;5082009;27;8854;-72
2022/08/04 05:53:29;;;;;;;;;31.25;30.00;;;;;31.24;nan;99418.50;5129120;27;8860;-71
2022/08/04 05:55:59;;;;;;;;;29.25;27.75;;;;;31.33;nan;99418.69;5130199;27;8949;-73
2022/08/04 05:58:30;;;;;;;;;30.75;30.00;;;;;31.65;nan;99415.81;5139733;27;9600;-71
2022/08/04 06:01:00;;;;;;;;;31.00;30.00;;;;;31.71;nan;99417.94;5131736;27;8830;-73
2022/08/04 06:03:30;;;;;;;;;29.75;28.75;;;;;31.75;nan;99415.84;5128282;27;8841;-73
2022/08/04 06:06:03;;;;;;;;;33.25;30.50;;;;;31.54;nan;99424.03;5129007;27;9683;-73
2022/08/04 06:08:32;;;;;;;;;27.25;25.50;;;;;31.01;nan;99417.84;5129663;27;8845;-73
2022/08/04 06:11:05;;;;;;;;;26.25;24.50;;;;;31.31;nan;99417.97;5111368;27;8896;-73
2022/08/04 06:13:39;;;;;;;;;30.00;28.75;;;;;31.57;nan;99421.03;5147799;27;8839;-73
2022/08/04 06:16:21;;;;;;;;;26.75;26.00;;;;;31.53;nan;99422.31;5149531;27;8831;-73
2022/08/04 06:19:04;;;;;;;;;31.00;29.25;;;;;31.78;nan;99423.66;5150806;27;8916;-72
2022/08/04 06:21:56;;;;;;;;;29.00;28.25;;;;;31.83;nan;99424.94;5129964;27;8973;-72
2022/08/04 06:24:29;;;;;;;;;32.00;30.00;;;;;31.85;nan;99422.94;5129525;27;8983;-70
2022/08/04 06:26:59;;;;;;;;;29.75;28.00;;;;;31.90;nan;99427.91;5128974;27;8873;-73
2022/08/04 06:29:34;;;;;;;;;29.00;28.50;;;;;32.42;nan;99435.72;5129594;27;8953;-74
2022/08/04 06:32:23;;;;;;;;;28.75;25.00;;;;;32.75;nan;99423.63;5128840;27;10173;-73
2022/08/04 06:35:02;;;;;;;;;25.25;25.25;;;;;33.09;nan;99422.25;5111302;27;8876;-71
2022/08/04 06:37:34;;;;;;;;;27.00;27.00;;;;;33.48;nan;99420.25;5129462;27;9690;-73
2022/08/04 06:40:13;;;;;;;;;27.25;25.00;;;;;33.79;nan;99422.63;5129364;27;8899;-74
2022/08/04 06:43:00;;;;;;;;;24.00;23.75;;;;;34.09;nan;99424.09;5136636;27;8827;-76
2022/08/04 06:45:30;;;;;;;;;27.50;27.50;;;;;34.27;nan;99425.97;5150396;27;8862;-71
2022/08/04 06:48:00;;;;;;;;;27.75;26.75;;;;;34.11;nan;99424.78;5131349;27;8889;-71
2022/08/04 06:50:30;;;;;;;;;26.25;26.25;;;;;34.05;nan;99424.56;5094206;27;8861;-70
2022/08/04 06:53:20;;;;;;;;;22.75;22.25;;;;;34.10;nan;99433.06;5150956;27;8877;-74
2022/08/04 06:55:51;;;;;;;;;30.25;28.50;;;;;34.27;nan;99428.69;5151030;27;9038;-71
2022/08/04 06:58:20;;;;;;;;;31.00;25.25;;;;;33.89;nan;99425.25;5129746;27;8868;-72
2022/08/04 07:00:50;;;;;;;;;23.50;23.00;;;;;33.28;nan;99429.44;5127304;27;8849;-71
2022/08/04 07:03:20;;;;;;;;;29.75;28.50;;;;;33.79;nan;99430.75;5142583;27;8865;-73
2022/08/04 07:05:51;;;;;;;;;24.00;24.00;;;;;33.89;nan;99434.22;5111335;27;8849;-75
2022/08/04 07:08:22;;;;;;;;;26.00;25.50;;;;;33.76;nan;99441.84;5128354;27;8913;-73
2022/08/04 07:10:53;;;;;;;;;23.75;23.75;;;;;33.50;nan;99439.00;5110268;27;8841;-74
2022/08/04 07:13:23;;;;;;;;;21.50;20.25;;;;;33.94;nan;99439.19;5143265;27;8973;-77
2022/08/04 07:15:52;;;;;;;;;20.25;19.25;;;;;34.16;nan;99436.03;5114754;27;9584;-75
2022/08/04 07:18:21;;;;;;;;;18.00;18.00;;;;;34.45;nan;99426.81;5046042;27;8832;-73
2022/08/04 07:20:50;;;;;;;;;19.50;19.50;;;;;34.73;nan;99432.13;5133094;27;8837;-75
2022/08/04 07:23:24;;;;;;;;;19.00;19.00;;;;;35.12;nan;99435.22;5131943;27;8844;-74
2022/08/04 07:25:55;;;;;;;;;21.25;20.00;;;;;35.06;nan;99435.00;5139373;27;8830;-75
2022/08/04 07:28:30;;;;;;;;;22.50;20.75;;;;;35.29;nan;99428.00;5078091;27;9107;-77
2022/08/04 07:30:59;;;;;;;;;23.00;22.00;;;;;35.47;nan;99437.94;5121684;27;8853;-74
2022/08/04 07:33:28;;;;;;;;;18.00;18.00;;;;;35.74;nan;99439.56;5075948;27;8957;-77
2022/08/04 07:35:58;;;;;;;;;21.75;20.75;;;;;35.93;nan;99432.97;5086193;27;8851;-73
2022/08/04 07:38:41;;;;;;;;;21.50;21.00;;;;;36.13;nan;99436.25;5128325;27;8849;-82
2022/08/04 07:41:21;;;;;;;;;19.50;19.50;;;;;36.44;nan;99438.31;5101286;27;8837;-74
2022/08/04 07:44:07;;;;;;;;;20.00;18.50;;;;;36.57;nan;99446.78;5127958;27;8820;-75
2022/08/04 07:46:37;;;;;;;;;17.75;17.75;;;;;36.80;nan;99437.97;5068146;27;8835;-78
2022/08/04 07:49:07;;;;;;;;;18.00;16.25;;;;;36.92;nan;99433.00;5127629;27;8839;-80
2022/08/04 07:51:37;;;;;;;;;19.00;18.50;;;;;37.04;nan;99437.06;5138660;27;8821;-78
2022/08/04 07:54:09;;;;;;;;;19.75;18.25;;;;;37.13;nan;99432.41;5122016;27;8886;-77
2022/08/04 07:56:41;;;;;;;;;11.00;11.00;;;;;37.16;nan;99434.81;5095744;27;9600;-75
2022/08/04 07:59:10;;;;;;;;;17.00;17.00;;;;;37.12;nan;99437.00;5149961;27;8847;-76
2022/08/04 08:01:40;;;;;;;;;18.00;18.00;;;;;37.08;nan;99438.38;5149990;27;8907;-77
2022/08/04 08:04:11;;;;;;;;;17.50;17.50;;;;;36.82;nan;99447.63;5063151;27;8970;-77
2022/08/04 08:06:40;;;;;;;;;15.75;15.00;;;;;36.92;nan;99433.88;5131043;27;8839;-78
2022/08/04 08:09:13;;;;;;;;;14.50;14.25;;;;;36.95;nan;99438.94;5143575;27;8845;-76
2022/08/04 08:11:43;;;;;;;;;19.25;16.00;;;;;36.95;nan;99441.66;5130007;27;8841;-75
2022/08/04 08:14:33;;;;;;;;;16.25;14.00;;;;;36.85;nan;99441.00;5133095;27;8856;-76
2022/08/04 08:17:03;;;;;;;;;12.75;12.75;;;;;37.02;nan;99441.81;5131395;27;8884;-77
2022/08/04 08:19:33;;;;;;;;;14.50;13.75;;;;;36.99;nan;99439.44;5114651;27;8869;-81
2022/08/04 08:22:02;;;;;;;;;15.00;15.00;;;;;37.13;nan;99441.44;5114237;27;8853;-76
2022/08/04 08:24:37;;;;;;;;;15.75;15.75;;;;;37.33;nan;99441.06;5097514;27;8837;-78
2022/08/04 08:27:07;;;;;;;;;13.25;11.75;;;;;37.41;nan;99443.72;5114678;27;9591;-77
2022/08/04 08:29:38;;;;;;;;;11.25;11.25;;;;;37.60;nan;99443.31;5132813;27;8951;-77
2022/08/04 08:32:11;;;;;;;;;13.75;13.50;;;;;37.70;nan;99450.44;5097001;27;8996;-81
2022/08/04 08:34:43;;;;;;;;;9.50;9.50;;;;;37.70;nan;99437.66;5114420;27;8830;-77
2022/08/04 08:37:18;;;;;;;;;11.75;11.75;;;;;37.69;nan;99443.28;5096686;27;8861;-76
2022/08/04 08:39:57;;;;;;;;;16.00;15.25;;;;;37.92;nan;99443.31;5113604;27;8895;-78
2022/08/04 08:42:59;;;;;;;;;16.50;16.25;;;;;37.95;nan;99438.34;5116376;27;8833;-80
2022/08/04 08:46:12;;;;;;;;;15.75;14.00;;;;;37.89;nan;99443.69;5051414;28;8933;-78
2022/08/04 08:49:02;;;;;;;;;14.25;13.75;;;;;37.90;nan;99453.53;5068155;28;8985;-81
2022/08/04 08:51:43;;;;;;;;;15.50;14.25;;;;;37.87;nan;99441.13;5053056;28;8909;-77
2022/08/04 08:54:53;;;;;;;;;15.50;14.50;;;;;37.97;nan;99443.63;5070607;28;8870;-75
2022/08/04 08:57:40;;;;;;;;;24.50;23.25;;;;;37.93;nan;99443.13;5069315;28;8898;-78
2022/08/04 09:00:40;;;;;;;;;25.75;25.75;;;;;37.90;nan;99446.19;5069176;28;8872;-77
2022/08/04 09:03:35;;;;;;;;;22.75;22.75;;;;;36.58;nan;99450.34;5068433;28;9605;-76
2022/08/04 09:06:30;;;;;;;;;24.75;24.75;;;;;35.69;nan;99453.63;5050605;28;8871;-77
2022/08/04 09:09:30;;;;;;;;;24.50;24.50;;;;;36.25;nan;99444.94;5007487;28;8870;-76
2022/08/04 09:12:09;;;;;;;;;24.75;24.75;;;;;36.77;nan;99449.16;5008136;28;9713;-78
2022/08/04 09:14:48;;;;;;;;;22.00;22.00;;;;;36.94;nan;99448.13;4975117;28;8862;-76
2022/08/04 09:17:27;;;;;;;;;23.00;22.75;;;;;36.92;nan;99447.47;5007536;28;8921;-78
2022/08/04 09:20:02;;;;;;;;;23.75;22.75;;;;;37.12;nan;99445.16;5007916;28;8855;-77
2022/08/04 09:22:39;;;;;;;;;16.75;16.75;;;;;37.38;nan;99446.81;5027621;28;8844;-77
2022/08/04 09:25:13;;;;;;;;;15.00;14.75;;;;;37.37;nan;99437.78;5014597;28;9036;-77
2022/08/04 09:27:50;;;;;;;;;13.75;13.50;;;;;37.52;nan;99440.59;5067019;28;8880;-78
2022/08/04 09:30:23;;;;;;;;;12.75;12.75;;;;;37.65;nan;99446.34;5031285;28;8849;-82
2022/08/04 09:33:07;;;;;;;;;12.75;11.50;;;;;37.63;nan;99442.97;5065877;28;8847;-79
2022/08/04 09:35:45;;;;;;;;;12.25;12.25;;;;;37.52;nan;99446.06;5066548;28;8848;-78
2022/08/04 09:38:20;;;;;;;;;14.00;14.00;;;;;37.77;nan;99444.09;5066332;28;8878;-77
2022/08/04 09:40:56;;;;;;;;;10.50;10.50;;;;;37.91;nan;99445.19;5033859;28;8970;-79
2022/08/04 09:43:39;;;;;;;;;17.25;16.25;;;;;38.11;nan;99439.28;5066274;28;8847;-75
2022/08/04 09:46:33;;;;;;;;;13.75;13.75;;;;;38.13;nan;99440.81;5111080;27;8874;-78
2022/08/04 09:49:04;;;;;;;;;11.50;10.75;;;;;38.11;nan;99436.56;5099262;27;8847;-77
2022/08/04 09:51:49;;;;;;;;;13.75;12.75;;;;;38.29;nan;99434.38;5150429;27;8893;-77
2022/08/04 09:54:33;;;;;;;;;14.00;14.00;;;;;38.27;nan;99435.59;5148304;27;9700;-77
2022/08/04 09:57:13;;;;;;;;;13.25;13.25;;;;;38.40;nan;99439.41;5149025;27;8839;-75
2022/08/04 09:59:53;;;;;;;;;13.25;13.25;;;;;38.27;nan;99441.91;5127912;27;8913;-75
2022/08/04 10:02:25;;;;;;;;;14.50;14.25;;;;;37.99;nan;99431.50;5119126;27;8938;-76
2022/08/04 10:04:56;;;;;;;;;11.50;11.50;;;;;38.34;nan;99431.97;5085057;27;8853;-77
2022/08/04 10:07:48;;;;;;;;;13.50;13.50;;;;;38.24;nan;99431.34;5130131;27;8953;-78
2022/08/04 10:10:37;;;;;;;;;11.75;11.75;;;;;38.19;nan;99439.25;5121564;27;8842;-78
2022/08/04 10:13:17;;;;;;;;;11.25;11.25;;;;;38.40;nan;99433.94;5129486;27;8905;-77
2022/08/04 10:15:57;;;;;;;;;8.00;8.00;;;;;38.34;nan;99429.25;5138164;27;9643;-77
2022/08/04 10:18:45;;;;;;;;;11.00;11.00;;;;;38.49;nan;99425.69;5144522;27;8853;-76
2022/08/04 10:21:24;;;;;;;;;13.75;12.00;;;;;38.18;nan;99429.38;5111021;27;9646;-78
2022/08/04 10:24:14;;;;;;;;;9.50;9.50;;;;;38.08;nan;99426.91;5093833;27;9993;-76
2022/08/04 10:26:51;;;;;;;;;9.50;9.50;;;;;38.02;nan;99423.00;5112769;27;8849;-76
2022/08/04 10:29:29;;;;;;;;;9.75;9.75;;;;;38.03;nan;99430.09;5142055;27;8843;-76
2022/08/04 10:32:05;;;;;;;;;8.00;8.00;;;;;38.17;nan;99430.41;5096203;27;8874;-78
2022/08/04 10:34:43;;;;;;;;;7.50;7.50;;;;;38.46;nan;99426.06;5150321;27;8927;-76
2022/08/04 10:37:20;;;;;;;;;8.25;8.25;;;;;38.26;nan;99418.38;5128290;27;8846;-77
2022/08/04 10:43:00;;;;;;;;;12.75;10.50;;;;;38.60;nan;99425.28;5131556;27;8843;-77
2022/08/04 10:45:36;;;;;;;;;10.75;10.75;;;;;38.44;nan;99434.44;5130009;27;8855;-77
2022/08/04 10:48:11;;;;;;;;;8.25;8.25;;;;;38.41;nan;99422.03;5097040;27;8850;-76
2022/08/04 10:50:53;;;;;;;;;11.25;11.25;;;;;38.61;nan;99419.63;5150186;27;8998;-76
2022/08/04 10:53:26;;;;;;;;;9.00;9.00;;;;;38.60;nan;99423.41;5131340;27;8949;-76
2022/08/04 10:56:02;;;;;;;;;8.75;8.00;;;;;38.77;nan;99421.38;5093771;27;8892;-77
2022/08/04 10:58:42;;;;;;;;;9.25;9.00;;;;;38.87;nan;99410.19;5077570;27;8896;-77
2022/08/04 11:01:23;;;;;;;;;8.25;8.25;;;;;38.99;nan;99408.69;5129779;27;8853;-78
2022/08/04 11:04:21;;;;;;;;;7.75;7.75;;;;;38.86;nan;99413.91;5129614;27;9711;-77
2022/08/04 11:06:58;;;;;;;;;9.00;9.00;;;;;38.88;nan;99414.59;5120870;27;8855;-76
2022/08/04 11:09:29;;;;;;;;;9.50;7.25;;;;;38.82;nan;99420.78;5149587;27;9013;-76
2022/08/04 11:12:06;;;;;;;;;8.75;8.75;;;;;39.03;nan;99414.63;5149724;27;8831;-76
2022/08/04 11:14:39;;;;;;;;;9.00;9.00;;;;;39.23;nan;99416.75;5151498;27;8843;-77
2022/08/04 11:17:14;;;;;;;;;9.25;9.25;;;;;39.13;nan;99417.06;5150045;27;8866;-77
2022/08/04 11:19:53;;;;;;;;;7.75;7.75;;;;;39.50;nan;99407.06;5149979;27;8832;-76
2022/08/04 11:22:36;;;;;;;;;8.00;8.00;;;;;39.36;nan;99411.50;5082814;27;8822;-74
2022/08/04 11:25:13;;;;;;;;;8.50;7.75;;;;;39.46;nan;99414.78;5128645;27;8822;-76
2022/08/04 11:27:53;;;;;;;;;11.00;11.00;;;;;38.96;nan;99409.06;5128751;27;8986;-78
2022/08/04 11:30:25;;;;;;;;;9.50;9.50;;;;;38.64;nan;99401.22;5128427;27;8873;-79
2022/08/04 11:33:09;;;;;;;;;9.25;8.50;;;;;38.94;nan;99402.94;5128746;27;8876;-76
2022/08/04 11:35:44;;;;;;;;;10.75;10.75;;;;;38.65;nan;99395.59;5129215;27;8838;-76
2022/08/04 11:38:22;;;;;;;;;10.00;10.00;;;;;39.30;nan;99388.53;5129170;27;9551;-77
2022/08/04 11:41:00;;;;;;;;;10.00;10.00;;;;;39.52;nan;99388.59;5113213;27;8864;-77
2022/08/04 11:43:37;;;;;;;;;12.75;12.00;;;;;39.92;nan;99384.44;5128872;27;8830;-78
2022/08/04 11:46:35;;;;;;;;;9.50;9.50;;;;;40.09;nan;99384.16;5128832;27;8906;-77
2022/08/04 11:49:08;;;;;;;;;11.75;11.75;;;;;40.31;nan;99385.84;5131980;27;8883;-75
2022/08/04 11:51:38;;;;;;;;;10.00;9.50;;;;;40.50;nan;99375.28;5132620;27;8865;-78
2022/08/04 11:54:11;;;;;;;;;10.75;10.25;;;;;40.88;nan;99380.38;5131778;27;8841;-76
2022/08/04 11:56:40;;;;;;;;;9.50;9.00;;;;;41.01;nan;99365.94;5131998;27;8865;-77
2022/08/04 11:59:08;;;;;;;;;10.75;10.00;;;;;41.32;nan;99379.13;5132339;27;9650;-77
2022/08/04 12:01:50;;;;;;;;;12.00;10.75;;;;;41.75;nan;99375.28;5131922;27;8841;-78
2022/08/04 12:04:34;;;;;;;;;14.25;13.25;;;;;42.07;nan;99371.75;5131633;27;8853;-76
2022/08/04 12:07:14;;;;;;;;;12.75;12.75;;;;;42.29;nan;99362.47;5131922;27;8853;-77
2022/08/04 12:10:14;;;;;;;;;10.00;10.00;;;;;42.44;nan;99366.69;5132104;27;8833;-77
2022/08/04 12:12:49;;;;;;;;;11.75;11.75;;;;;42.73;nan;99371.94;5132189;27;8883;-76
2022/08/04 12:15:26;;;;;;;;;13.25;13.25;;;;;42.91;nan;99366.63;5132079;27;8873;-77
2022/08/04 12:18:08;;;;;;;;;12.50;12.50;;;;;43.33;nan;99364.38;5151286;27;8977;-77
2022/08/04 12:20:43;;;;;;;;;7.00;7.00;;;;;43.61;nan;99366.75;5152534;27;8832;-77
2022/08/04 12:23:19;;;;;;;;;11.25;11.25;;;;;43.99;nan;99356.78;5134380;27;8831;-79
2022/08/04 12:25:58;;;;;;;;;10.25;10.25;;;;;43.99;nan;99362.28;5152001;27;9569;-78
2022/08/04 12:28:33;;;;;;;;;9.25;8.75;;;;;44.37;nan;99366.84;5098082;27;8863;-78
2022/08/04 12:31:27;;;;;;;;;10.75;10.50;;;;;44.57;nan;99358.44;5108036;27;8847;-78
2022/08/04 12:33:59;;;;;;;;;9.00;9.00;;;;;45.21;nan;99358.97;5133599;27;9054;-77
2022/08/04 12:36:40;;;;;;;;;11.00;10.25;;;;;44.99;nan;99366.03;5135355;27;8854;-77
2022/08/04 12:39:12;;;;;;;;;11.00;11.00;;;;;45.43;nan;99355.72;5131569;27;8853;-78
2022/08/04 12:41:52;;;;;;;;;10.50;10.50;;;;;45.87;nan;99361.91;5132027;27;9044;-76
2022/08/04 12:44:21;;;;;;;;;9.00;9.00;;;;;45.97;nan;99358.56;5131365;27;8814;-78
2022/08/04 12:47:07;;;;;;;;;9.00;8.00;;;;;46.33;nan;99342.91;5130589;27;8908;-79
2022/08/04 12:50:00;;;;;;;;;7.75;7.75;;;;;46.85;nan;99352.13;5091235;27;8843;-77
2022/08/04 12:52:35;;;;;;;;;3.25;2.75;;;;;47.33;nan;99350.06;5151871;27;8886;-79